Time;durP1;ratioP1;P1;durP2;ratioP2;P2;SDS_P1;SDS_P2;PMS_P1;PMS_P2;Temp;Humidity;BMP_temperature;BMP_pressure;BME280_temperature;BME280_humidity;BME280_pressure;Samples;Min_cycle;Max_cycle;Signal;HPM_P1;HPM_P2
2022/07/01 00:04:58;;;;;;;20.75;18.20;;;;;;;20.27;89.33;98648.45;4180012;83;21332;-89
2022/07/01 00:11:25;;;;;;;25.97;19.30;;;;;;;20.29;89.21;98640.45;4183062;83;21082;-90
2022/07/01 00:17:27;;;;;;;23.95;19.82;;;;;;;20.16;89.32;98646.64;4179930;83;21740;-90
2022/07/01 00:23:29;;;;;;;20.02;16.95;;;;;;;20.04;89.76;98646.80;4182564;83;21051;-91
2022/07/01 00:29:30;;;;;;;21.20;17.45;;;;;;;19.98;90.08;98650.58;4182194;83;21078;-91
2022/07/01 00:35:33;;;;;;;20.90;18.70;;;;;;;20.01;90.36;98652.47;4159239;84;21118;-89
2022/07/01 00:41:35;;;;;;;20.60;17.73;;;;;;;19.88;90.20;98637.80;4179061;83;21067;-90
2022/07/01 00:47:39;;;;;;;20.72;17.32;;;;;;;19.75;90.74;98634.23;4192577;82;21122;-89
2022/07/01 00:53:41;;;;;;;22.07;16.25;;;;;;;19.73;91.07;98633.30;4196071;82;21053;-92
2022/07/01 00:59:42;;;;;;;22.30;19.07;;;;;;;19.63;91.34;98626.69;4197896;82;21085;-89
2022/07/01 01:05:44;;;;;;;23.67;19.42;;;;;;;19.57;91.28;98620.14;4204762;82;21085;-89
2022/07/01 01:11:46;;;;;;;20.05;16.48;;;;;;;19.41;91.62;98615.47;4191467;82;22002;-91
2022/07/01 01:17:47;;;;;;;16.15;14.50;;;;;;;19.55;92.41;98621.19;4216147;82;21088;-90
2022/07/01 01:23:49;;;;;;;21.68;17.80;;;;;;;19.70;92.39;98625.09;4187239;82;21075;-92
2022/07/01 01:29:51;;;;;;;18.50;16.55;;;;;;;19.57;91.95;98624.30;4104023;84;21046;-92
2022/07/01 01:35:52;;;;;;;18.45;16.57;;;;;;;19.36;91.96;98619.39;4034211;85;21047;-91
2022/07/01 01:41:53;;;;;;;26.52;18.40;;;;;;;19.19;92.15;98627.00;4065163;85;21072;-90
2022/07/01 01:47:58;;;;;;;21.93;18.27;;;;;;;19.03;92.21;98629.08;4174511;83;21174;-93
2022/07/01 01:54:00;;;;;;;21.87;18.07;;;;;;;18.93;92.80;98631.53;4158862;83;21154;-90
2022/07/01 02:00:01;;;;;;;19.15;16.23;;;;;;;18.86;93.19;98634.48;4202406;82;21085;-91
2022/07/01 02:06:07;;;;;;;19.70;16.27;;;;;;;18.89;94.00;98630.86;4209197;81;21851;-91
2022/07/01 02:12:09;;;;;;;16.23;14.60;;;;;;;18.73;93.40;98638.59;4205659;82;21027;-89
2022/07/01 02:18:11;;;;;;;17.92;14.07;;;;;;;18.88;94.23;98638.40;4203616;81;21095;-92
2022/07/01 02:24:12;;;;;;;20.52;15.48;;;;;;;19.07;94.21;98643.61;4223944;81;21094;-89
2022/07/01 02:30:16;;;;;;;19.48;13.60;;;;;;;19.08;94.00;98643.77;4209239;82;21067;-88
2022/07/01 02:36:17;;;;;;;24.85;17.17;;;;;;;19.17;94.12;98645.31;4208157;82;21070;-89
2022/07/01 02:42:22;;;;;;;22.37;16.05;;;;;;;19.02;93.53;98651.08;4219626;82;21704;-90
2022/07/01 02:48:24;;;;;;;17.20;14.65;;;;;;;18.78;93.59;98653.32;4240292;82;21067;-89
2022/07/01 02:54:26;;;;;;;16.90;14.58;;;;;;;18.57;93.79;98662.98;4199257;82;21038;-89
2022/07/01 03:00:27;;;;;;;22.07;13.98;;;;;;;18.48;94.29;98663.42;4129441;84;21086;-90
2022/07/01 03:06:29;;;;;;;20.30;14.58;;;;;;;18.59;94.74;98669.47;4203143;82;21372;-89
2022/07/01 03:12:34;;;;;;;21.02;15.05;;;;;;;18.59;94.29;98668.88;4216818;82;21074;-90
2022/07/01 03:18:43;;;;;;;20.65;16.73;;;;;;;18.44;94.13;98666.91;4217217;82;21126;-91
2022/07/01 03:24:44;;;;;;;18.32;14.80;;;;;;;18.35;94.94;98659.16;4189373;82;22504;-91
2022/07/01 03:30:46;;;;;;;17.75;14.23;;;;;;;18.30;95.37;98672.18;4206909;82;22123;-87
2022/07/01 03:36:49;;;;;;;18.65;14.25;;;;;;;18.44;95.81;98676.02;4209256;82;22596;-89
2022/07/01 03:42:51;;;;;;;19.05;14.03;;;;;;;18.47;95.34;98676.52;4186741;82;21078;-89
2022/07/01 03:48:54;;;;;;;17.37;15.58;;;;;;;18.53;95.75;98673.39;4181421;82;21091;-90
2022/07/01 03:54:58;;;;;;;19.25;14.43;;;;;;;18.56;96.00;98669.75;4157889;83;21110;-91
2022/07/01 04:01:00;;;;;;;24.07;16.57;;;;;;;18.59;96.26;98675.80;4183099;83;21003;-94
2022/07/01 04:07:04;;;;;;;22.52;16.77;;;;;;;18.59;96.76;98673.03;4176996;83;21207;-90
2022/07/01 04:13:06;;;;;;;19.75;16.67;;;;;;;18.65;97.13;98671.91;4176396;83;21062;-89
2022/07/01 04:19:11;;;;;;;22.32;18.37;;;;;;;18.77;97.53;98673.17;4174169;83;21147;-91
2022/07/01 04:25:14;;;;;;;16.52;14.83;;;;;;;18.91;96.98;98676.95;4181076;83;21150;-93
2022/07/01 04:31:16;;;;;;;15.90;14.23;;;;;;;19.13;97.67;98681.48;4176582;83;21098;-89
2022/07/01 04:37:18;;;;;;;17.65;14.03;;;;;;;19.36;97.50;98681.83;4028485;86;21122;-93
2022/07/01 04:43:19;;;;;;;15.83;13.72;;;;;;;19.59;97.49;98682.95;4165827;83;21058;-91
2022/07/01 04:49:21;;;;;;;16.70;13.28;;;;;;;19.75;97.19;98672.52;4189149;83;22013;-91
2022/07/01 04:55:22;;;;;;;16.75;14.35;;;;;;;19.92;97.02;98685.70;4203926;82;20991;-89
2022/07/01 05:01:24;;;;;;;19.05;15.90;;;;;;;20.09;96.87;98682.98;4217912;82;21035;-91
2022/07/01 05:07:28;;;;;;;18.02;14.40;;;;;;;20.26;97.19;98677.48;4181943;83;21039;-90
2022/07/01 05:13:30;;;;;;;19.57;15.43;;;;;;;20.42;97.18;98684.30;4179157;83;21122;-88
2022/07/01 05:25:51;;;;;;;17.25;14.15;;;;;;;20.87;97.14;98671.42;4209653;82;21431;-89
2022/07/01 05:31:53;;;;;;;16.00;13.58;;;;;;;21.17;97.18;98674.30;4202169;81;21008;-87
2022/07/01 05:37:55;;;;;;;14.98;12.50;;;;;;;21.50;96.91;98667.73;4200934;82;21051;-90
2022/07/01 05:43:57;;;;;;;15.18;12.65;;;;;;;21.80;96.21;98671.78;4224595;81;21657;-92
2022/07/01 05:49:58;;;;;;;14.43;12.07;;;;;;;22.07;95.72;98669.88;4174725;82;21067;-91
2022/07/01 05:56:00;;;;;;;16.57;12.50;;;;;;;22.33;95.32;98674.61;4139016;83;21067;-90
2022/07/01 06:02:02;;;;;;;17.77;12.28;;;;;;;22.57;94.85;98672.81;4102852;83;21091;-89
2022/07/01 06:08:05;;;;;;;14.98;11.18;;;;;;;22.80;94.02;98663.23;4104276;83;21074;-89
2022/07/01 06:14:08;;;;;;;16.50;10.75;;;;;;;23.00;93.17;98669.14;4080850;85;22051;-90
2022/07/01 06:20:10;;;;;;;15.60;11.12;;;;;;;23.24;92.43;98668.64;4083829;84;21073;-90
2022/07/01 06:26:11;;;;;;;11.85;10.13;;;;;;;23.50;91.57;98665.52;4181836;83;21034;-88
2022/07/01 06:32:14;;;;;;;13.78;9.33;;;;;;;23.79;90.48;98660.18;4074354;84;22014;-89
2022/07/01 06:38:15;;;;;;;16.05;9.13;;;;;;;24.03;88.99;98662.42;4072353;85;21074;-91
2022/07/01 06:44:17;;;;;;;13.25;9.90;;;;;;;24.27;88.12;98660.45;4168418;83;21047;-91
2022/07/01 06:50:18;;;;;;;12.80;9.88;;;;;;;24.54;87.32;98661.05;4162817;83;21067;-89
2022/07/01 06:56:20;;;;;;;12.05;9.40;;;;;;;24.93;86.92;98662.52;4152819;83;22022;-91
2022/07/01 07:02:22;;;;;;;13.03;9.35;;;;;;;25.50;85.75;98663.86;4157758;83;21099;-90
2022/07/01 07:08:23;;;;;;;13.80;8.93;;;;;;;26.23;84.30;98662.41;4157480;83;21028;-88
2022/07/01 07:14:24;;;;;;;14.95;8.73;;;;;;;26.99;82.46;98664.09;4164220;83;22116;-88
2022/07/01 07:20:27;;;;;;;12.03;7.85;;;;;;;27.73;81.06;98668.56;4154259;83;21071;-90
2022/07/01 07:26:28;;;;;;;18.07;7.95;;;;;;;28.31;79.38;98668.02;4118216;83;21111;-91
2022/07/01 07:32:30;;;;;;;10.18;8.10;;;;;;;28.80;76.35;98659.11;4169768;83;21058;-91
2022/07/01 07:38:31;;;;;;;14.40;8.90;;;;;;;29.11;74.94;98654.76;4162160;83;21102;-91
2022/07/01 07:44:33;;;;;;;12.35;7.78;;;;;;;29.48;72.90;98655.97;4159001;83;21043;-90
2022/07/01 07:50:34;;;;;;;10.80;7.65;;;;;;;29.90;71.68;98660.00;4184331;83;21100;-92
2022/07/01 07:56:36;;;;;;;10.40;7.75;;;;;;;30.33;69.80;98664.88;4089580;85;21696;-90
2022/07/01 08:02:42;;;;;;;13.98;7.55;;;;;;;30.52;68.07;98662.27;4159437;83;21055;-91
2022/07/01 08:08:43;;;;;;;11.73;8.28;;;;;;;30.73;66.50;98657.81;4159382;83;21088;-91
2022/07/01 08:14:44;;;;;;;12.90;7.83;;;;;;;30.82;65.67;98668.88;4164251;83;21032;-90
2022/07/01 08:20:53;;;;;;;13.70;8.13;;;;;;;30.80;64.27;98667.84;4158959;83;21063;-91
2022/07/01 08:26:54;;;;;;;12.85;8.25;;;;;;;30.76;62.88;98666.69;4162476;83;22463;-91
2022/07/01 08:32:56;;;;;;;11.75;7.65;;;;;;;30.92;61.68;98655.20;4163042;83;21083;-90
2022/07/01 08:38:57;;;;;;;11.93;8.00;;;;;;;30.96;58.90;98655.07;4163362;83;21091;-90
2022/07/01 08:44:59;;;;;;;12.35;8.43;;;;;;;31.26;59.14;98653.75;4165036;83;21065;-92
2022/07/01 08:51:03;;;;;;;11.28;7.75;;;;;;;31.38;58.14;98653.19;4116513;83;21162;-91
2022/07/01 08:57:07;;;;;;;12.10;8.23;;;;;;;31.40;57.44;98654.83;4115207;84;21768;-91
2022/07/01 09:03:09;;;;;;;15.45;8.13;;;;;;;31.55;56.91;98665.16;4090911;85;21040;-91
2022/07/01 09:09:21;;;;;;;9.05;7.10;;;;;;;31.70;55.84;98657.06;4057597;85;21131;-89
2022/07/01 09:15:45;;;;;;;10.30;7.58;;;;;;;31.86;55.15;98651.17;4069357;85;21087;-93
2022/07/01 09:21:57;;;;;;;13.85;7.70;;;;;;;31.99;54.68;98648.50;4085151;85;21044;-92
2022/07/01 09:28:38;;;;;;;8.65;6.95;;;;;;;32.21;54.21;98646.09;4105830;85;21020;-91
2022/07/01 09:34:54;;;;;;;13.75;7.30;;;;;;;32.44;53.83;98655.28;4082292;86;21073;-91
2022/07/01 09:47:45;;;;;;;11.65;7.55;;;;;;;33.28;52.43;98661.50;4126951;84;21369;-91
2022/07/01 09:54:01;;;;;;;13.43;7.60;;;;;;;33.62;51.87;98656.88;4132598;84;21103;-92
2022/07/01 10:07:10;;;;;;;12.90;7.67;;;;;;;34.01;49.73;98660.53;4230397;82;21972;-88
2022/07/01 10:13:15;;;;;;;11.78;7.03;;;;;;;34.15;49.57;98658.61;4233784;82;21016;-87
2022/07/01 10:19:31;;;;;;;10.25;7.15;;;;;;;34.43;48.80;98656.05;4248471;82;21077;-86
2022/07/01 10:25:43;;;;;;;11.90;6.00;;;;;;;34.26;47.38;98659.05;4242532;82;21017;-86
2022/07/01 10:31:44;;;;;;;7.20;6.22;;;;;;;33.87;47.14;98650.41;4237606;82;21010;-88
2022/07/01 10:38:00;;;;;;;7.10;6.12;;;;;;;33.85;46.86;98634.56;4225977;82;21675;-87
2022/07/01 10:44:07;;;;;;;7.83;5.72;;;;;;;34.41;45.98;98624.56;4221653;82;21002;-87
2022/07/01 10:50:13;;;;;;;6.10;5.50;;;;;;;34.83;45.61;98619.18;4256578;81;21059;-88
2022/07/01 10:56:17;;;;;;;5.87;5.28;;;;;;;35.15;44.69;98614.77;4256842;82;21022;-87
2022/07/01 11:02:31;;;;;;;10.00;5.03;;;;;;;35.41;43.34;98603.31;4218536;81;21073;-87
2022/07/01 11:08:33;;;;;;;6.40;5.00;;;;;;;35.84;42.40;98614.20;4237892;82;21023;-87
2022/07/01 11:14:40;;;;;;;7.80;4.90;;;;;;;36.13;40.73;98607.98;4230601;82;21101;-87
2022/07/01 11:20:41;;;;;;;8.18;5.00;;;;;;;35.87;40.94;98606.74;4231570;81;21107;-87
2022/07/01 11:26:43;;;;;;;7.55;4.55;;;;;;;35.58;40.77;98598.66;4203387;82;21638;-87
2022/07/01 11:32:49;;;;;;;6.47;4.40;;;;;;;35.12;41.09;98593.12;4228301;82;20983;-88
2022/07/01 11:45:22;;;;;;;10.53;4.92;;;;;;;35.87;40.67;98581.77;4237023;81;20995;-87
2022/07/01 11:51:31;;;;;;;6.03;4.83;;;;;;;36.31;40.98;98581.25;4223941;82;21013;-87
2022/07/01 11:57:29;;;;;;;7.95;5.00;;;;;;;36.57;39.98;98581.79;4230803;82;21073;-87
2022/07/01 12:03:31;;;;;;;9.20;4.78;;;;;;;36.91;39.08;98585.23;4243871;82;21047;-86
2022/07/01 12:09:34;;;;;;;6.35;5.05;;;;;;;37.00;38.57;98569.00;4213687;83;22464;-86
2022/07/01 12:15:37;;;;;;;11.55;4.95;;;;;;;36.98;39.42;98561.66;4196134;83;21055;-87
2022/07/01 12:21:54;;;;;;;6.22;4.85;;;;;;;36.72;39.19;98560.50;4216551;83;21574;-86
2022/07/01 12:27:57;;;;;;;8.65;4.87;;;;;;;36.32;38.38;98554.30;4209439;82;21055;-86
2022/07/01 12:33:58;;;;;;;9.38;4.62;;;;;;;36.08;38.02;98537.67;4236591;81;21060;-86
2022/07/01 12:40:10;;;;;;;8.73;4.53;;;;;;;35.90;37.49;98544.39;4216795;82;21370;-86
2022/07/01 12:46:15;;;;;;;9.13;4.83;;;;;;;35.54;38.08;98532.11;4224112;82;21561;-87
2022/07/01 12:52:27;;;;;;;7.37;4.53;;;;;;;35.39;37.69;98531.21;4196428;83;21387;-86
2022/07/01 12:58:28;;;;;;;7.53;4.50;;;;;;;35.36;37.01;98535.94;4216467;83;21058;-85
2022/07/01 13:04:32;;;;;;;12.53;5.60;;;;;;;35.01;37.39;98528.60;4191312;83;21654;-87
2022/07/01 13:10:33;;;;;;;8.73;5.28;;;;;;;34.83;37.11;98535.30;4162151;83;21007;-88
2022/07/01 13:16:35;;;;;;;10.60;4.60;;;;;;;34.80;36.70;98539.25;4166449;83;21952;-87
2022/07/01 13:22:37;;;;;;;6.33;4.78;;;;;;;34.79;36.23;98538.37;4172663;83;21061;-87
2022/07/01 13:28:38;;;;;;;7.50;4.12;;;;;;;34.70;36.86;98541.04;4160008;83;21031;-87
2022/07/01 13:34:40;;;;;;;6.62;4.72;;;;;;;34.72;37.13;98539.81;4165400;83;21087;-87
2022/07/01 13:40:42;;;;;;;6.45;4.62;;;;;;;34.62;38.09;98537.34;4159102;83;21030;-86
2022/07/01 13:46:43;;;;;;;7.90;4.53;;;;;;;34.38;38.20;98543.26;4160052;83;21053;-86
2022/07/01 13:52:49;;;;;;;7.97;4.40;;;;;;;34.11;37.76;98535.27;4156885;83;21008;-87
2022/07/01 13:58:52;;;;;;;7.25;4.75;;;;;;;34.06;38.46;98537.56;4159373;83;21574;-87
2022/07/01 14:04:53;;;;;;;5.47;4.03;;;;;;;34.02;38.58;98532.20;4182745;83;21066;-85
2022/07/01 14:10:54;;;;;;;11.08;5.20;;;;;;;34.06;37.38;98517.67;4235342;83;21133;-86
2022/07/01 14:16:56;;;;;;;7.53;4.62;;;;;;;34.07;37.67;98510.03;4227897;82;21424;-85
2022/07/01 14:22:57;;;;;;;8.80;4.80;;;;;;;33.95;38.41;98503.05;4230730;82;21050;-86
2022/07/01 14:28:58;;;;;;;10.18;4.85;;;;;;;33.69;39.48;98503.65;4230286;81;22002;-87
2022/07/01 14:35:01;;;;;;;7.67;5.25;;;;;;;33.37;39.62;98491.63;4231982;82;21026;-87
2022/07/01 14:41:02;;;;;;;12.73;4.92;;;;;;;33.23;40.08;98494.32;4218352;83;20967;-86
2022/07/01 14:47:04;;;;;;;8.85;4.85;;;;;;;32.94;40.45;98498.16;4206294;83;21088;-88
2022/07/01 14:53:07;;;;;;;10.23;5.35;;;;;;;32.83;41.03;98501.13;4216375;82;21047;-86
2022/07/01 14:59:09;;;;;;;8.55;4.90;;;;;;;32.63;41.73;98502.31;4213070;82;21039;-87
2022/07/01 15:05:11;;;;;;;7.40;5.22;;;;;;;32.60;41.89;98506.22;4209947;82;21070;-85
2022/07/01 15:11:12;;;;;;;10.95;4.80;;;;;;;32.56;42.35;98515.69;4212049;83;21392;-87
2022/07/01 15:17:14;;;;;;;6.83;4.87;;;;;;;32.50;42.68;98520.67;4215881;82;21043;-89
2022/07/01 15:23:15;;;;;;;6.08;4.55;;;;;;;32.39;42.72;98514.48;4210629;83;21955;-88
2022/07/01 15:29:17;;;;;;;8.35;4.87;;;;;;;32.26;43.04;98526.34;4209738;82;21740;-87
2022/07/01 15:35:19;;;;;;;5.37;4.45;;;;;;;32.11;42.95;98534.50;4211531;82;21036;-86
2022/07/01 15:41:22;;;;;;;8.83;3.90;;;;;;;32.04;43.45;98527.37;4219887;82;21047;-86
2022/07/01 15:53:43;;;;;;;5.62;4.20;;;;;;;31.98;43.04;98537.32;4212612;82;22229;-87
2022/07/01 15:59:45;;;;;;;5.35;4.50;;;;;;;32.00;42.99;98533.21;4208438;83;21108;-87
2022/07/01 16:05:51;;;;;;;5.45;3.90;;;;;;;31.96;43.07;98525.75;4214653;83;21569;-89
2022/07/01 16:11:54;;;;;;;6.08;4.05;;;;;;;31.90;43.40;98525.05;4139908;84;21065;-87
2022/07/01 16:17:57;;;;;;;8.30;4.08;;;;;;;31.81;42.95;98523.19;4214867;83;21065;-87
2022/07/01 16:24:01;;;;;;;8.83;4.55;;;;;;;31.85;42.20;98520.23;4221865;82;21138;-86
2022/07/01 16:30:03;;;;;;;10.32;4.35;;;;;;;31.88;42.58;98517.77;4163488;83;21472;-88
2022/07/01 16:36:12;;;;;;;11.00;4.28;;;;;;;31.54;43.15;98512.93;4154696;84;21005;-88
2022/07/01 16:42:15;;;;;;;6.00;4.35;;;;;;;31.48;43.23;98517.88;4211608;83;22074;-86
2022/07/01 16:48:17;;;;;;;7.60;4.40;;;;;;;31.37;43.48;98523.63;4216020;83;21563;-86
2022/07/01 16:54:22;;;;;;;9.35;4.55;;;;;;;31.20;43.41;98528.59;4217056;83;21063;-86
2022/07/01 17:00:24;;;;;;;9.05;4.87;;;;;;;31.08;43.55;98525.09;4226146;83;21070;-86
2022/07/01 17:06:27;;;;;;;7.97;4.40;;;;;;;31.03;43.52;98529.36;4202619;83;21151;-85
2022/07/01 17:12:29;;;;;;;6.35;4.05;;;;;;;30.93;43.39;98532.40;4213502;83;21025;-85
2022/07/01 17:18:30;;;;;;;9.33;5.03;;;;;;;30.74;43.18;98533.64;4211776;83;21937;-86
2022/07/01 17:24:32;;;;;;;7.22;4.03;;;;;;;30.61;43.17;98524.20;4101084;83;9999932;-86
2022/07/01 17:31:08;;;;;;;7.78;4.78;;;;;;;30.48;43.16;98521.31;4218134;83;21078;-87
2022/07/01 17:37:37;;;;;;;8.58;4.70;;;;;;;30.30;43.16;98527.54;4211788;83;21046;-87
2022/07/01 17:44:20;;;;;;;10.45;4.47;;;;;;;30.14;43.32;98531.18;4277692;83;21066;-86
2022/07/01 17:50:25;;;;;;;8.25;4.53;;;;;;;30.01;43.51;98524.53;4297497;81;21032;-85
2022/07/01 17:56:28;;;;;;;9.20;5.03;;;;;;;29.84;43.99;98544.34;4232233;82;21047;-85
2022/07/01 18:02:31;;;;;;;9.90;4.92;;;;;;;29.61;44.62;98559.73;4230269;82;21023;-87
2022/07/01 18:08:33;;;;;;;10.18;6.17;;;;;;;29.32;45.29;98565.86;4216787;82;21071;-86
2022/07/01 18:15:03;;;;;;;12.15;5.80;;;;;;;29.20;45.72;98572.78;4307369;80;21089;-87
2022/07/01 18:21:10;;;;;;;8.25;6.92;;;;;;;29.00;46.10;98596.27;4167448;80;9999807;-86
2022/07/01 18:27:12;;;;;;;12.73;7.40;;;;;;;28.81;46.89;98622.61;4300817;81;20995;-86
2022/07/01 18:33:23;;;;;;;14.23;7.17;;;;;;;28.75;47.68;98631.02;4287605;81;21011;-86
2022/07/01 18:39:26;;;;;;;14.28;7.75;;;;;;;28.59;48.69;98650.67;4270848;81;21531;-86
2022/07/01 18:45:30;;;;;;;16.25;8.38;;;;;;;28.35;49.73;98643.98;4298955;81;21010;-85
2022/07/01 18:51:34;;;;;;;19.27;9.33;;;;;;;28.11;51.31;98654.83;4296429;81;21827;-85
2022/07/01 18:57:45;;;;;;;19.40;9.50;;;;;;;27.85;51.89;98670.97;4294279;81;20982;-87
2022/07/01 19:03:47;;;;;;;21.70;9.80;;;;;;;27.63;52.99;98680.63;4304409;81;21483;-86
2022/07/01 19:09:49;;;;;;;19.35;9.95;;;;;;;27.44;53.93;98704.70;4261585;82;21033;-86
2022/07/01 19:15:50;;;;;;;15.35;8.95;;;;;;;27.24;54.90;98715.34;4178921;84;22082;-86
2022/07/01 19:21:51;;;;;;;14.03;9.63;;;;;;;27.09;55.89;98718.84;4000461;84;9999702;-86
2022/07/01 19:27:57;;;;;;;16.67;10.25;;;;;;;26.94;56.90;98745.46;4121511;85;21926;-86
2022/07/01 19:34:10;;;;;;;18.02;10.35;;;;;;;26.74;57.85;98771.51;4110738;85;21455;-85
2022/07/01 19:40:16;;;;;;;19.40;10.10;;;;;;;26.58;58.80;98790.87;4111973;84;21046;-85
2022/07/01 20:00:25;;;;;;;11.83;9.73;;;;;;;26.04;60.87;98854.01;4248415;82;21029;-86
2022/07/01 20:06:29;;;;;;;15.53;9.93;;;;;;;25.82;61.61;98878.80;4253087;82;21053;-85
2022/07/01 20:12:35;;;;;;;14.20;8.85;;;;;;;25.57;61.74;98877.90;4252375;82;21060;-85
2022/07/01 20:18:37;;;;;;;10.88;9.58;;;;;;;25.49;63.28;98962.19;4264080;82;21868;-85
2022/07/01 20:24:47;;;;;;;11.28;9.93;;;;;;;25.49;63.28;98962.19;4260918;82;21009;-86
2022/07/01 20:31:05;;;;;;;12.58;9.75;;;;;;;25.36;63.94;99011.44;4263394;82;21978;-85
2022/07/01 20:37:09;;;;;;;15.20;10.20;;;;;;;25.23;64.01;99036.70;4313429;82;20969;-86
2022/07/01 20:43:10;;;;;;;10.82;9.68;;;;;;;25.10;64.35;99068.31;4273004;82;21025;-86
2022/07/01 20:49:11;;;;;;;18.05;9.78;;;;;;;24.98;65.08;99093.09;4259084;82;21005;-84
2022/07/01 20:55:13;;;;;;;14.45;10.10;;;;;;;24.76;65.30;99098.09;4266676;82;21096;-87
2022/07/01 21:01:14;;;;;;;11.93;10.03;;;;;;;24.35;66.16;99095.25;4153702;83;21068;-86
2022/07/01 21:07:17;;;;;;;12.07;10.00;;;;;;;24.09;67.38;99108.72;4122353;84;21138;-87
2022/07/01 21:13:18;;;;;;;11.70;10.48;;;;;;;23.93;68.19;99125.73;4159249;83;21074;-86
2022/07/01 21:19:19;;;;;;;14.70;11.28;;;;;;;23.81;69.03;99112.66;4205440;83;21050;-86
2022/07/01 21:25:21;;;;;;;13.75;11.55;;;;;;;23.71;69.57;99137.60;4167927;83;21110;-86
2022/07/01 21:31:22;;;;;;;13.55;12.23;;;;;;;23.64;70.27;99161.66;4215214;82;21042;-86
2022/07/01 21:37:37;;;;;;;15.98;13.60;;;;;;;23.59;70.92;99176.22;4225280;82;21500;-84
2022/07/01 21:43:45;;;;;;;15.17;13.57;;;;;;;23.45;71.29;99198.31;4225200;82;22158;-87
2022/07/01 21:49:45;;;;;;;16.70;14.80;;;;;;;23.28;71.95;99187.98;4230689;82;21023;-87
2022/07/01 21:55:47;;;;;;;17.77;14.25;;;;;;;23.15;72.74;99209.57;4223139;82;21019;-85
2022/07/01 22:01:49;;;;;;;16.02;14.35;;;;;;;23.08;73.38;99202.22;4228933;82;21654;-85
2022/07/01 22:07:50;;;;;;;17.37;14.83;;;;;;;23.05;74.04;99230.30;4149301;82;21047;-86
2022/07/01 22:14:02;;;;;;;15.78;14.18;;;;;;;22.89;74.58;99245.20;4038176;86;21008;-86
2022/07/01 22:20:09;;;;;;;21.73;17.07;;;;;;;22.78;75.53;99290.84;4069150;86;21075;-86
2022/07/01 22:26:31;;;;;;;20.32;14.05;;;;;;;22.48;76.11;99279.45;4087454;86;21063;-87
2022/07/01 22:32:50;;;;;;;12.93;11.00;;;;;;;22.14;77.23;99285.72;4114212;86;21056;-86
2022/07/01 22:39:15;;;;;;;14.03;9.88;;;;;;;21.86;77.90;99308.08;4102711;86;21028;-85
2022/07/01 22:45:17;;;;;;;10.65;9.35;;;;;;;21.58;78.18;99314.60;4060086;86;21071;-89
2022/07/01 22:51:27;;;;;;;11.38;10.10;;;;;;;21.42;79.16;99309.08;4066235;85;21093;-85
2022/07/01 22:58:01;;;;;;;11.75;10.28;;;;;;;21.30;79.74;99293.71;4071547;85;21738;-84
2022/07/01 23:04:04;;;;;;;13.83;9.48;;;;;;;21.25;80.29;99287.31;4066448;86;21071;-85
2022/07/01 23:10:11;;;;;;;9.83;8.93;;;;;;;21.14;80.54;99327.94;4131958;84;21047;-86
2022/07/01 23:16:27;;;;;;;10.70;8.50;;;;;;;21.01;80.69;99324.33;4139902;84;21555;-84
2022/07/01 23:22:34;;;;;;;8.85;8.00;;;;;;;20.94;81.48;99303.59;4144534;84;21359;-85
2022/07/01 23:28:37;;;;;;;;;;;;;;;20.84;81.67;99338.05;4131808;84;21048;-83
2022/07/01 23:35:00;;;;;;;9.80;8.10;;;;;;;20.82;83.16;99372.47;4142083;84;20736;-85
2022/07/01 23:41:17;;;;;;;13.18;10.65;;;;;;;20.75;82.27;99385.77;4133041;84;20987;-84
2022/07/01 23:47:19;;;;;;;12.20;10.90;;;;;;;20.66;82.55;99396.69;4139025;84;21098;-85
2022/07/01 23:53:20;;;;;;;12.70;11.50;;;;;;;20.58;82.93;99414.78;4144488;84;21055;-85
2022/07/01 23:59:22;;;;;;;13.10;11.80;;;;;;;20.48;83.25;99408.24;4144079;84;21558;-84
